Time,TemperatureF,DewpointF,PressureIn,WindDirection,WindDirectionDegrees,WindSpeedMPH,WindSpeedGustMPH,Humidity,HourlyPrecipIn,Conditions,Clouds,dailyrainin,SoftwareType,DateUTC
2013-08-08 00:00:00,66.4,55.5,30.12,North,11,0.0,0.0,68,0.00,,,0.00,Wunderground v.1.15,2013-08-08 04:00:00,
2013-08-08 00:30:00,66.8,55.1,30.10,WSW,243,1.0,1.0,66,0.00,,,0.00,Wunderground v.1.15,2013-08-08 04:30:00,
2013-08-08 01:00:00,66.9,55.2,30.10,NNW,342,1.0,1.0,66,0.00,,,0.00,Wunderground v.1.15,2013-08-08 05:00:00,
2013-08-08 01:30:00,66.8,55.9,30.09,WSW,249,1.0,2.0,68,0.00,,,0.00,Wunderground v.1.15,2013-08-08 05:30:00,
2013-08-08 02:00:00,66.7,57.0,30.09,SE,142,0.0,1.0,71,0.00,,,0.00,Wunderground v.1.15,2013-08-08 06:00:00,
2013-08-08 02:30:00,66.8,58.2,30.08,SSE,160,1.0,1.0,74,0.00,,,0.00,Wunderground v.1.15,2013-08-08 06:30:00,
2013-08-08 03:00:00,66.9,59.1,30.07,SSW,200,0.0,0.0,76,0.00,,,0.00,Wunderground v.1.15,2013-08-08 07:00:00,
2013-08-08 03:30:00,67.3,60.2,30.07,South,174,1.0,1.0,78,0.00,,,0.00,Wunderground v.1.15,2013-08-08 07:30:00,
2013-08-08 04:00:00,67.6,60.5,30.07,NNE,27,0.0,1.0,78,0.00,,,0.00,Wunderground v.1.15,2013-08-08 08:00:00,
2013-08-08 04:30:00,67.7,61.0,30.06,ENE,72,0.0,0.0,79,0.00,,,0.00,Wunderground v.1.15,2013-08-08 08:30:00,
2013-08-08 05:00:00,67.8,61.0,30.06,NE,34,0.0,0.0,79,0.00,,,0.00,Wunderground v.1.15,2013-08-08 09:00:00,
2013-08-08 05:30:00,67.9,61.1,30.05,SW,236,0.0,1.0,79,0.00,,,0.00,Wunderground v.1.15,2013-08-08 09:30:00,
2013-08-08 06:00:00,67.8,61.8,30.05,NNE,17,0.0,0.0,81,0.00,,,0.00,Wunderground v.1.15,2013-08-08 10:00:00,
2013-08-08 06:30:00,67.5,62.2,30.05,North,11,0.0,1.0,83,0.00,,,0.00,Wunderground v.1.15,2013-08-08 10:30:00,
2013-08-08 07:00:00,66.6,62.3,30.05,North,11,0.0,0.0,86,0.06,,,0.05,Wunderground v.1.15,2013-08-08 11:00:00,
2013-08-08 07:30:00,66.7,62.7,30.06,NNW,347,1.0,1.0,87,0.00,,,0.05,Wunderground v.1.15,2013-08-08 11:30:00,
2013-08-08 08:00:00,67.7,63.7,30.05,ENE,72,1.0,1.0,87,0.00,,,0.05,Wunderground v.1.15,2013-08-08 12:00:00,
2013-08-08 08:30:00,69.2,64.8,30.05,WNW,292,1.0,1.0,86,0.00,,,0.05,Wunderground v.1.15,2013-08-08 12:30:00,
2013-08-08 09:00:00,71.1,66.0,30.05,SE,129,1.0,1.0,84,0.00,,,0.05,Wunderground v.1.15,2013-08-08 13:00:00,
2013-08-08 09:30:00,72.0,66.2,30.05,NE,34,0.0,0.0,82,0.00,,,0.05,Wunderground v.1.15,2013-08-08 13:30:00,
2013-08-08 10:00:00,72.2,66.7,30.06,NE,44,0.0,0.0,83,0.00,,,0.05,Wunderground v.1.15,2013-08-08 14:00:00,
2013-08-08 10:30:00,72.6,67.5,30.05,SW,217,0.0,0.0,84,0.00,,,0.05,Wunderground v.1.15,2013-08-08 14:30:00,
2013-08-08 11:00:00,73.5,68.0,30.06,NNE,15,0.0,0.0,83,0.00,,,0.05,Wunderground v.1.15,2013-08-08 15:00:00,
2013-08-08 11:30:00,75.6,69.4,30.04,North,358,1.0,1.0,81,0.00,,,0.05,Wunderground v.1.15,2013-08-08 15:30:00,
2013-08-08 12:00:00,75.9,69.3,30.03,NNE,27,1.0,1.0,80,0.00,,,0.05,Wunderground v.1.15,2013-08-08 16:00:00,
2013-08-08 12:30:00,77.3,70.3,30.03,NE,39,1.0,3.0,79,0.00,,,0.05,Wunderground v.1.15,2013-08-08 16:30:00,
2013-08-08 13:00:00,78.3,70.5,30.02,ENE,65,1.0,2.0,77,0.00,,,0.05,Wunderground v.1.15,2013-08-08 17:00:00,
2013-08-08 13:30:00,79.9,70.5,30.03,West,279,1.0,1.0,73,0.00,,,0.05,Wunderground v.1.15,2013-08-08 17:30:00,
2013-08-08 14:00:00,77.5,70.1,30.03,West,274,1.0,1.0,78,0.00,,,0.05,Wunderground v.1.15,2013-08-08 18:00:00,
2013-08-08 14:30:00,80.5,71.0,30.02,West,267,1.0,1.0,73,0.00,,,0.05,Wunderground v.1.15,2013-08-08 18:30:00,
2013-08-08 15:00:00,80.3,70.9,30.02,NNW,339,1.0,1.0,73,0.00,,,0.05,Wunderground v.1.15,2013-08-08 19:00:00,
2013-08-08 15:30:00,82.6,71.8,30.01,West,277,1.0,1.0,70,0.00,,,0.05,Wunderground v.1.15,2013-08-08 19:30:00,
2013-08-08 16:00:00,82.8,70.7,30.00,SSW,209,1.0,1.0,67,0.00,,,0.05,Wunderground v.1.15,2013-08-08 20:00:00,
2013-08-08 16:30:00,83.4,72.2,29.99,WNW,288,1.0,2.0,69,0.00,,,0.05,Wunderground v.1.15,2013-08-08 20:30:00,
2013-08-08 17:00:00,83.2,72.0,29.99,SSE,148,1.0,2.0,69,0.00,,,0.05,Wunderground v.1.15,2013-08-08 21:00:00,
2013-08-08 17:30:00,82.7,70.6,29.99,West,278,1.0,1.0,67,0.00,,,0.05,Wunderground v.1.15,2013-08-08 21:30:00,
2013-08-08 18:00:00,82.0,71.2,29.98,ESE,115,1.0,1.0,70,0.00,,,0.05,Wunderground v.1.15,2013-08-08 22:00:00,
2013-08-08 18:30:00,80.5,70.6,29.98,WSW,254,0.0,0.0,72,0.00,,,0.05,Wunderground v.1.15,2013-08-08 22:30:00,
2013-08-08 19:00:00,79.0,70.4,29.98,West,269,0.0,0.0,75,0.00,,,0.05,Wunderground v.1.15,2013-08-08 23:00:00,
2013-08-08 19:30:00,77.6,69.8,29.99,East,95,0.0,0.0,77,0.00,,,0.05,Wunderground v.1.15,2013-08-08 23:30:00,
2013-08-08 20:00:00,76.4,69.4,30.00,ESE,105,0.0,0.0,79,0.00,,,0.05,Wunderground v.1.15,2013-08-09 00:00:00,
2013-08-08 20:30:00,75.5,69.3,30.01,NE,44,0.0,0.0,81,0.00,,,0.05,Wunderground v.1.15,2013-08-09 00:30:00,
2013-08-08 21:00:00,74.9,69.0,30.02,NE,49,0.0,0.0,82,0.00,,,0.05,Wunderground v.1.15,2013-08-09 01:00:00,
2013-08-08 21:30:00,74.2,68.3,30.02,SW,226,0.0,0.0,82,0.00,,,0.05,Wunderground v.1.15,2013-08-09 01:30:00,
2013-08-08 22:00:00,73.7,68.2,30.02,ESE,111,0.0,0.0,83,0.00,,,0.05,Wunderground v.1.15,2013-08-09 02:00:00,
2013-08-08 22:30:00,73.4,68.3,30.01,ESE,115,0.0,0.0,84,0.00,,,0.05,Wunderground v.1.15,2013-08-09 02:30:00,
2013-08-08 23:00:00,73.1,68.0,30.01,SSE,153,0.0,0.0,84,0.00,,,0.05,Wunderground v.1.15,2013-08-09 03:00:00,
2013-08-08 23:30:00,72.9,68.1,30.00,SE,127,0.0,0.0,85,0.00,,,0.05,Wunderground v.1.15,2013-08-09 03:30:00,